sensor_id;sensor_type;location;lat;lon;timestamp;P1;durP1;ratioP1;P2;durP2;ratioP2
73919;SDS011;62266;53.348;-1.496;2023-11-19T00:00:26;13.27;;;3.53;;
73919;SDS011;62266;53.348;-1.496;2023-11-19T00:03:10;10.90;;;1.98;;
73919;SDS011;62266;53.348;-1.496;2023-11-19T00:05:54;12.43;;;2.13;;
73919;SDS011;62266;53.348;-1.496;2023-11-19T00:08:39;13.07;;;2.03;;
73919;SDS011;62266;53.348;-1.496;2023-11-19T00:11:23;15.13;;;2.72;;
73919;SDS011;62266;53.348;-1.496;2023-11-19T00:14:07;17.80;;;2.87;;
73919;SDS011;62266;53.348;-1.496;2023-11-19T00:16:52;17.70;;;2.25;;
73919;SDS011;62266;53.348;-1.496;2023-11-19T00:19:37;13.77;;;2.72;;
73919;SDS011;62266;53.348;-1.496;2023-11-19T00:22:21;12.63;;;2.50;;
73919;SDS011;62266;53.348;-1.496;2023-11-19T00:25:06;17.70;;;3.03;;
73919;SDS011;62266;53.348;-1.496;2023-11-19T00:27:50;11.67;;;2.27;;
73919;SDS011;62266;53.348;-1.496;2023-11-19T00:30:35;19.38;;;2.90;;
73919;SDS011;62266;53.348;-1.496;2023-11-19T00:33:19;13.98;;;2.60;;
73919;SDS011;62266;53.348;-1.496;2023-11-19T00:36:03;16.85;;;2.40;;
73919;SDS011;62266;53.348;-1.496;2023-11-19T00:38:47;14.98;;;2.45;;
73919;SDS011;62266;53.348;-1.496;2023-11-19T00:41:31;19.27;;;2.90;;
73919;SDS011;62266;53.348;-1.496;2023-11-19T00:44:15;14.82;;;2.63;;
73919;SDS011;62266;53.348;-1.496;2023-11-19T00:47:00;19.63;;;2.90;;
73919;SDS011;62266;53.348;-1.496;2023-11-19T00:49:43;15.13;;;2.58;;
73919;SDS011;62266;53.348;-1.496;2023-11-19T00:52:28;14.38;;;2.80;;
73919;SDS011;62266;53.348;-1.496;2023-11-19T00:55:12;17.57;;;2.70;;
73919;SDS011;62266;53.348;-1.496;2023-11-19T00:57:57;16.80;;;2.20;;
73919;SDS011;62266;53.348;-1.496;2023-11-19T01:00:41;16.45;;;2.42;;
73919;SDS011;62266;53.348;-1.496;2023-11-19T01:03:26;18.83;;;2.72;;
73919;SDS011;62266;53.348;-1.496;2023-11-19T01:06:10;15.82;;;2.00;;
73919;SDS011;62266;53.348;-1.496;2023-11-19T01:08:54;14.17;;;2.20;;
73919;SDS011;62266;53.348;-1.496;2023-11-19T01:11:40;11.07;;;2.60;;
73919;SDS011;62266;53.348;-1.496;2023-11-19T01:14:24;15.95;;;2.13;;
73919;SDS011;62266;53.348;-1.496;2023-11-19T01:17:09;18.98;;;2.45;;
73919;SDS011;62266;53.348;-1.496;2023-11-19T01:19:53;9.88;;;1.80;;
73919;SDS011;62266;53.348;-1.496;2023-11-19T01:22:37;14.63;;;2.40;;
73919;SDS011;62266;53.348;-1.496;2023-11-19T01:25:21;12.50;;;2.60;;
73919;SDS011;62266;53.348;-1.496;2023-11-19T01:28:05;11.20;;;2.10;;
73919;SDS011;62266;53.348;-1.496;2023-11-19T01:30:52;14.70;;;2.75;;
73919;SDS011;62266;53.348;-1.496;2023-11-19T01:33:36;17.83;;;2.75;;
73919;SDS011;62266;53.348;-1.496;2023-11-19T01:36:20;18.67;;;2.80;;
73919;SDS011;62266;53.348;-1.496;2023-11-19T01:39:04;14.02;;;2.28;;
73919;SDS011;62266;53.348;-1.496;2023-11-19T01:41:48;10.25;;;1.67;;
73919;SDS011;62266;53.348;-1.496;2023-11-19T01:44:32;13.98;;;2.75;;
73919;SDS011;62266;53.348;-1.496;2023-11-19T01:47:17;14.98;;;2.20;;
73919;SDS011;62266;53.348;-1.496;2023-11-19T01:50:02;16.77;;;2.73;;
73919;SDS011;62266;53.348;-1.496;2023-11-19T01:52:53;14.88;;;2.83;;
73919;SDS011;62266;53.348;-1.496;2023-11-19T01:55:37;12.57;;;2.55;;
73919;SDS011;62266;53.348;-1.496;2023-11-19T01:58:21;18.30;;;2.38;;
73919;SDS011;62266;53.348;-1.496;2023-11-19T02:01:07;15.98;;;2.80;;
73919;SDS011;62266;53.348;-1.496;2023-11-19T02:03:52;13.80;;;2.13;;
73919;SDS011;62266;53.348;-1.496;2023-11-19T02:06:37;15.48;;;2.60;;
73919;SDS011;62266;53.348;-1.496;2023-11-19T02:09:24;13.95;;;2.45;;
73919;SDS011;62266;53.348;-1.496;2023-11-19T02:12:08;15.02;;;2.95;;
73919;SDS011;62266;53.348;-1.496;2023-11-19T02:14:55;13.75;;;2.75;;
73919;SDS011;62266;53.348;-1.496;2023-11-19T02:17:39;18.30;;;2.93;;
73919;SDS011;62266;53.348;-1.496;2023-11-19T02:20:23;15.70;;;2.47;;
73919;SDS011;62266;53.348;-1.496;2023-11-19T02:23:10;18.58;;;3.00;;
73919;SDS011;62266;53.348;-1.496;2023-11-19T02:26:01;14.27;;;2.20;;
73919;SDS011;62266;53.348;-1.496;2023-11-19T02:28:49;14.02;;;2.30;;
73919;SDS011;62266;53.348;-1.496;2023-11-19T02:31:33;15.60;;;2.40;;
73919;SDS011;62266;53.348;-1.496;2023-11-19T02:34:18;14.25;;;3.05;;
73919;SDS011;62266;53.348;-1.496;2023-11-19T02:37:02;14.73;;;2.03;;
73919;SDS011;62266;53.348;-1.496;2023-11-19T02:39:48;12.70;;;1.92;;
73919;SDS011;62266;53.348;-1.496;2023-11-19T02:42:32;11.95;;;2.40;;
73919;SDS011;62266;53.348;-1.496;2023-11-19T02:45:17;12.20;;;2.03;;
73919;SDS011;62266;53.348;-1.496;2023-11-19T02:48:01;13.73;;;2.20;;
73919;SDS011;62266;53.348;-1.496;2023-11-19T02:50:45;17.48;;;2.15;;
73919;SDS011;62266;53.348;-1.496;2023-11-19T02:53:31;17.50;;;4.03;;
73919;SDS011;62266;53.348;-1.496;2023-11-19T02:56:15;12.27;;;1.77;;
73919;SDS011;62266;53.348;-1.496;2023-11-19T02:59:08;12.13;;;1.67;;
73919;SDS011;62266;53.348;-1.496;2023-11-19T03:02:02;12.43;;;1.98;;
73919;SDS011;62266;53.348;-1.496;2023-11-19T03:04:45;12.52;;;2.25;;
73919;SDS011;62266;53.348;-1.496;2023-11-19T03:07:29;9.02;;;1.63;;
73919;SDS011;62266;53.348;-1.496;2023-11-19T03:10:14;10.38;;;2.20;;
73919;SDS011;62266;53.348;-1.496;2023-11-19T03:12:58;10.83;;;2.43;;
73919;SDS011;62266;53.348;-1.496;2023-11-19T03:15:46;14.30;;;1.83;;
73919;SDS011;62266;53.348;-1.496;2023-11-19T03:18:30;12.88;;;2.08;;
73919;SDS011;62266;53.348;-1.496;2023-11-19T03:21:14;13.45;;;2.53;;
73919;SDS011;62266;53.348;-1.496;2023-11-19T03:23:58;12.40;;;2.20;;
73919;SDS011;62266;53.348;-1.496;2023-11-19T03:26:48;12.40;;;2.90;;
73919;SDS011;62266;53.348;-1.496;2023-11-19T03:29:34;17.30;;;2.38;;
73919;SDS011;62266;53.348;-1.496;2023-11-19T03:32:18;13.85;;;1.92;;
73919;SDS011;62266;53.348;-1.496;2023-11-19T03:35:02;12.27;;;2.00;;
73919;SDS011;62266;53.348;-1.496;2023-11-19T03:37:48;11.25;;;2.15;;
73919;SDS011;62266;53.348;-1.496;2023-11-19T03:40:32;19.00;;;2.07;;
73919;SDS011;62266;53.348;-1.496;2023-11-19T03:43:16;14.52;;;2.38;;
73919;SDS011;62266;53.348;-1.496;2023-11-19T03:46:00;17.05;;;3.90;;
73919;SDS011;62266;53.348;-1.496;2023-11-19T03:48:44;14.32;;;2.28;;
73919;SDS011;62266;53.348;-1.496;2023-11-19T03:51:28;16.08;;;2.28;;
73919;SDS011;62266;53.348;-1.496;2023-11-19T03:54:12;15.20;;;2.53;;
73919;SDS011;62266;53.348;-1.496;2023-11-19T03:56:56;11.43;;;1.73;;
73919;SDS011;62266;53.348;-1.496;2023-11-19T03:59:40;15.10;;;2.97;;
73919;SDS011;62266;53.348;-1.496;2023-11-19T04:02:24;9.43;;;2.17;;
73919;SDS011;62266;53.348;-1.496;2023-11-19T04:05:11;10.05;;;2.03;;
73919;SDS011;62266;53.348;-1.496;2023-11-19T04:07:55;7.90;;;1.80;;
73919;SDS011;62266;53.348;-1.496;2023-11-19T04:10:39;9.55;;;1.52;;
73919;SDS011;62266;53.348;-1.496;2023-11-19T04:13:26;11.20;;;1.60;;
73919;SDS011;62266;53.348;-1.496;2023-11-19T04:16:10;17.42;;;2.13;;
73919;SDS011;62266;53.348;-1.496;2023-11-19T04:18:54;15.30;;;2.35;;
73919;SDS011;62266;53.348;-1.496;2023-11-19T04:21:41;11.63;;;2.10;;
73919;SDS011;62266;53.348;-1.496;2023-11-19T04:24:26;10.40;;;1.42;;
73919;SDS011;62266;53.348;-1.496;2023-11-19T04:27:10;12.93;;;2.28;;
73919;SDS011;62266;53.348;-1.496;2023-11-19T04:29:54;7.72;;;2.03;;
73919;SDS011;62266;53.348;-1.496;2023-11-19T04:32:38;17.42;;;1.90;;
73919;SDS011;62266;53.348;-1.496;2023-11-19T04:35:22;18.33;;;2.23;;
73919;SDS011;62266;53.348;-1.496;2023-11-19T04:38:07;13.13;;;1.70;;
73919;SDS011;62266;53.348;-1.496;2023-11-19T04:40:51;9.55;;;1.70;;
73919;SDS011;62266;53.348;-1.496;2023-11-19T04:43:36;11.30;;;2.30;;
73919;SDS011;62266;53.348;-1.496;2023-11-19T04:46:20;11.85;;;2.15;;
73919;SDS011;62266;53.348;-1.496;2023-11-19T04:49:04;11.70;;;2.00;;
73919;SDS011;62266;53.348;-1.496;2023-11-19T04:51:48;12.77;;;1.98;;
73919;SDS011;62266;53.348;-1.496;2023-11-19T04:54:32;11.85;;;1.85;;
73919;SDS011;62266;53.348;-1.496;2023-11-19T04:57:16;12.43;;;2.03;;
73919;SDS011;62266;53.348;-1.496;2023-11-19T05:00:00;12.75;;;2.13;;
73919;SDS011;62266;53.348;-1.496;2023-11-19T05:02:45;13.97;;;2.50;;
73919;SDS011;62266;53.348;-1.496;2023-11-19T05:05:29;8.38;;;1.83;;
73919;SDS011;62266;53.348;-1.496;2023-11-19T05:08:14;12.57;;;1.60;;
73919;SDS011;62266;53.348;-1.496;2023-11-19T05:10:58;9.13;;;1.48;;
73919;SDS011;62266;53.348;-1.496;2023-11-19T05:13:43;7.57;;;1.30;;
73919;SDS011;62266;53.348;-1.496;2023-11-19T05:16:28;8.10;;;1.40;;
73919;SDS011;62266;53.348;-1.496;2023-11-19T05:19:12;7.32;;;1.00;;
73919;SDS011;62266;53.348;-1.496;2023-11-19T05:21:57;6.72;;;1.27;;
73919;SDS011;62266;53.348;-1.496;2023-11-19T05:24:44;6.90;;;1.30;;
73919;SDS011;62266;53.348;-1.496;2023-11-19T05:27:30;9.65;;;1.27;;
73919;SDS011;62266;53.348;-1.496;2023-11-19T05:30:14;9.03;;;1.40;;
73919;SDS011;62266;53.348;-1.496;2023-11-19T05:32:59;5.80;;;1.10;;
73919;SDS011;62266;53.348;-1.496;2023-11-19T05:35:44;10.02;;;1.40;;
73919;SDS011;62266;53.348;-1.496;2023-11-19T05:38:28;9.80;;;1.23;;
73919;SDS011;62266;53.348;-1.496;2023-11-19T05:41:12;8.38;;;1.58;;
73919;SDS011;62266;53.348;-1.496;2023-11-19T05:43:57;8.93;;;1.20;;
73919;SDS011;62266;53.348;-1.496;2023-11-19T05:46:41;7.70;;;1.15;;
73919;SDS011;62266;53.348;-1.496;2023-11-19T05:49:26;12.52;;;2.08;;
73919;SDS011;62266;53.348;-1.496;2023-11-19T05:52:10;9.38;;;2.25;;
73919;SDS011;62266;53.348;-1.496;2023-11-19T05:54:55;13.80;;;2.80;;
73919;SDS011;62266;53.348;-1.496;2023-11-19T05:57:40;10.13;;;1.97;;
73919;SDS011;62266;53.348;-1.496;2023-11-19T06:00:27;12.93;;;2.63;;
73919;SDS011;62266;53.348;-1.496;2023-11-19T06:03:14;11.23;;;1.95;;
73919;SDS011;62266;53.348;-1.496;2023-11-19T06:05:59;10.25;;;2.00;;
73919;SDS011;62266;53.348;-1.496;2023-11-19T06:08:43;13.20;;;2.13;;
73919;SDS011;62266;53.348;-1.496;2023-11-19T06:11:27;9.70;;;2.33;;
73919;SDS011;62266;53.348;-1.496;2023-11-19T06:14:12;11.77;;;1.90;;
73919;SDS011;62266;53.348;-1.496;2023-11-19T06:16:56;13.68;;;2.08;;
73919;SDS011;62266;53.348;-1.496;2023-11-19T06:19:40;9.57;;;1.90;;
73919;SDS011;62266;53.348;-1.496;2023-11-19T06:22:25;13.70;;;1.85;;
73919;SDS011;62266;53.348;-1.496;2023-11-19T06:25:09;13.57;;;2.00;;
73919;SDS011;62266;53.348;-1.496;2023-11-19T06:27:54;11.85;;;1.60;;
73919;SDS011;62266;53.348;-1.496;2023-11-19T06:30:45;12.98;;;2.15;;
73919;SDS011;62266;53.348;-1.496;2023-11-19T06:33:29;7.60;;;1.55;;
73919;SDS011;62266;53.348;-1.496;2023-11-19T06:36:16;12.40;;;1.85;;
73919;SDS011;62266;53.348;-1.496;2023-11-19T06:39:01;15.57;;;2.20;;
73919;SDS011;62266;53.348;-1.496;2023-11-19T06:41:45;8.98;;;1.70;;
73919;SDS011;62266;53.348;-1.496;2023-11-19T06:44:30;10.85;;;1.63;;
73919;SDS011;62266;53.348;-1.496;2023-11-19T06:47:14;11.52;;;1.60;;
73919;SDS011;62266;53.348;-1.496;2023-11-19T06:49:58;6.25;;;1.13;;
73919;SDS011;62266;53.348;-1.496;2023-11-19T06:52:43;9.30;;;1.30;;
73919;SDS011;62266;53.348;-1.496;2023-11-19T06:55:27;10.38;;;1.50;;
73919;SDS011;62266;53.348;-1.496;2023-11-19T06:58:11;9.75;;;1.40;;
73919;SDS011;62266;53.348;-1.496;2023-11-19T07:00:56;8.25;;;1.60;;
73919;SDS011;62266;53.348;-1.496;2023-11-19T07:03:40;10.52;;;1.55;;
73919;SDS011;62266;53.348;-1.496;2023-11-19T07:06:25;11.17;;;1.50;;
73919;SDS011;62266;53.348;-1.496;2023-11-19T07:09:10;7.40;;;1.08;;
73919;SDS011;62266;53.348;-1.496;2023-11-19T07:11:54;8.07;;;1.25;;
73919;SDS011;62266;53.348;-1.496;2023-11-19T07:14:38;14.15;;;1.90;;
73919;SDS011;62266;53.348;-1.496;2023-11-19T07:17:22;14.95;;;2.60;;
73919;SDS011;62266;53.348;-1.496;2023-11-19T07:20:08;8.87;;;1.30;;
73919;SDS011;62266;53.348;-1.496;2023-11-19T07:22:52;11.43;;;1.45;;
73919;SDS011;62266;53.348;-1.496;2023-11-19T07:25:38;10.50;;;1.33;;
73919;SDS011;62266;53.348;-1.496;2023-11-19T07:28:23;14.27;;;2.10;;
73919;SDS011;62266;53.348;-1.496;2023-11-19T07:31:07;9.90;;;1.77;;
73919;SDS011;62266;53.348;-1.496;2023-11-19T07:33:57;9.57;;;1.10;;
73919;SDS011;62266;53.348;-1.496;2023-11-19T07:36:41;9.32;;;1.45;;
73919;SDS011;62266;53.348;-1.496;2023-11-19T07:39:25;14.70;;;2.17;;
73919;SDS011;62266;53.348;-1.496;2023-11-19T07:42:09;9.52;;;1.60;;
73919;SDS011;62266;53.348;-1.496;2023-11-19T07:44:54;11.15;;;1.67;;
73919;SDS011;62266;53.348;-1.496;2023-11-19T07:47:40;10.93;;;1.60;;
73919;SDS011;62266;53.348;-1.496;2023-11-19T07:50:24;10.38;;;2.00;;
73919;SDS011;62266;53.348;-1.496;2023-11-19T07:53:09;7.40;;;2.05;;
73919;SDS011;62266;53.348;-1.496;2023-11-19T07:55:53;11.15;;;1.85;;
73919;SDS011;62266;53.348;-1.496;2023-11-19T07:58:38;10.13;;;1.50;;
73919;SDS011;62266;53.348;-1.496;2023-11-19T08:01:22;11.97;;;1.87;;
73919;SDS011;62266;53.348;-1.496;2023-11-19T08:04:07;9.52;;;1.70;;
73919;SDS011;62266;53.348;-1.496;2023-11-19T08:06:51;6.65;;;1.20;;
73919;SDS011;62266;53.348;-1.496;2023-11-19T08:09:35;5.55;;;1.42;;
73919;SDS011;62266;53.348;-1.496;2023-11-19T08:12:19;11.45;;;1.42;;
73919;SDS011;62266;53.348;-1.496;2023-11-19T08:15:06;11.43;;;1.50;;
73919;SDS011;62266;53.348;-1.496;2023-11-19T08:17:51;11.55;;;1.98;;
73919;SDS011;62266;53.348;-1.496;2023-11-19T08:20:35;10.88;;;1.70;;
73919;SDS011;62266;53.348;-1.496;2023-11-19T08:23:19;13.00;;;1.80;;
73919;SDS011;62266;53.348;-1.496;2023-11-19T08:26:04;5.85;;;1.33;;
73919;SDS011;62266;53.348;-1.496;2023-11-19T08:28:49;14.57;;;1.90;;
73919;SDS011;62266;53.348;-1.496;2023-11-19T08:31:33;7.65;;;1.40;;
73919;SDS011;62266;53.348;-1.496;2023-11-19T08:34:20;9.30;;;1.67;;
73919;SDS011;62266;53.348;-1.496;2023-11-19T08:37:04;9.23;;;2.17;;
73919;SDS011;62266;53.348;-1.496;2023-11-19T08:39:50;10.93;;;1.80;;
73919;SDS011;62266;53.348;-1.496;2023-11-19T08:42:34;12.80;;;1.50;;
73919;SDS011;62266;53.348;-1.496;2023-11-19T08:45:18;14.77;;;1.60;;
73919;SDS011;62266;53.348;-1.496;2023-11-19T08:48:03;11.88;;;1.90;;
73919;SDS011;62266;53.348;-1.496;2023-11-19T08:50:47;9.63;;;1.58;;
73919;SDS011;62266;53.348;-1.496;2023-11-19T08:53:31;8.82;;;1.42;;
73919;SDS011;62266;53.348;-1.496;2023-11-19T08:56:15;7.20;;;1.37;;
73919;SDS011;62266;53.348;-1.496;2023-11-19T08:58:59;9.60;;;1.65;;
73919;SDS011;62266;53.348;-1.496;2023-11-19T09:01:44;11.63;;;1.58;;
73919;SDS011;62266;53.348;-1.496;2023-11-19T09:04:28;11.77;;;1.48;;
73919;SDS011;62266;53.348;-1.496;2023-11-19T09:07:12;13.38;;;2.53;;
73919;SDS011;62266;53.348;-1.496;2023-11-19T09:09:56;13.60;;;1.60;;
73919;SDS011;62266;53.348;-1.496;2023-11-19T09:12:40;8.55;;;1.50;;
73919;SDS011;62266;53.348;-1.496;2023-11-19T09:15:30;9.65;;;1.90;;
73919;SDS011;62266;53.348;-1.496;2023-11-19T09:18:15;10.30;;;1.60;;
73919;SDS011;62266;53.348;-1.496;2023-11-19T09:20:59;7.97;;;1.48;;
73919;SDS011;62266;53.348;-1.496;2023-11-19T09:23:46;9.23;;;1.27;;
73919;SDS011;62266;53.348;-1.496;2023-11-19T09:26:31;9.30;;;1.58;;
73919;SDS011;62266;53.348;-1.496;2023-11-19T09:29:15;9.68;;;1.17;;
73919;SDS011;62266;53.348;-1.496;2023-11-19T09:32:03;11.70;;;1.27;;
73919;SDS011;62266;53.348;-1.496;2023-11-19T09:34:51;8.05;;;1.85;;
73919;SDS011;62266;53.348;-1.496;2023-11-19T09:37:35;8.63;;;1.27;;
73919;SDS011;62266;53.348;-1.496;2023-11-19T09:40:19;5.55;;;1.60;;
73919;SDS011;62266;53.348;-1.496;2023-11-19T09:43:04;9.10;;;1.50;;
73919;SDS011;62266;53.348;-1.496;2023-11-19T09:45:48;10.02;;;1.52;;
73919;SDS011;62266;53.348;-1.496;2023-11-19T09:48:33;8.77;;;1.27;;
73919;SDS011;62266;53.348;-1.496;2023-11-19T09:51:19;4.90;;;1.30;;
73919;SDS011;62266;53.348;-1.496;2023-11-19T09:54:10;5.60;;;1.15;;
73919;SDS011;62266;53.348;-1.496;2023-11-19T09:56:57;8.40;;;1.27;;
73919;SDS011;62266;53.348;-1.496;2023-11-19T09:59:47;5.10;;;1.00;;
73919;SDS011;62266;53.348;-1.496;2023-11-19T10:02:31;3.75;;;0.93;;
73919;SDS011;62266;53.348;-1.496;2023-11-19T10:05:18;6.77;;;0.90;;
73919;SDS011;62266;53.348;-1.496;2023-11-19T10:08:04;4.10;;;1.17;;
73919;SDS011;62266;53.348;-1.496;2023-11-19T10:10:49;4.57;;;0.57;;
73919;SDS011;62266;53.348;-1.496;2023-11-19T10:13:36;6.80;;;0.85;;
73919;SDS011;62266;53.348;-1.496;2023-11-19T10:16:29;3.83;;;0.88;;
73919;SDS011;62266;53.348;-1.496;2023-11-19T10:22:02;8.25;;;1.15;;
73919;SDS011;62266;53.348;-1.496;2023-11-19T10:30:25;7.25;;;1.40;;
73919;SDS011;62266;53.348;-1.496;2023-11-19T10:33:13;4.60;;;0.93;;
73919;SDS011;62266;53.348;-1.496;2023-11-19T10:36:04;8.75;;;1.40;;
73919;SDS011;62266;53.348;-1.496;2023-11-19T10:41:37;4.93;;;1.00;;
73919;SDS011;62266;53.348;-1.496;2023-11-19T10:44:30;6.50;;;1.30;;
73919;SDS011;62266;53.348;-1.496;2023-11-19T10:47:20;11.00;;;4.83;;
73919;SDS011;62266;53.348;-1.496;2023-11-19T10:50:06;14.13;;;4.15;;
73919;SDS011;62266;53.348;-1.496;2023-11-19T10:52:51;6.47;;;1.70;;
73919;SDS011;62266;53.348;-1.496;2023-11-19T10:55:40;5.53;;;1.02;;
73919;SDS011;62266;53.348;-1.496;2023-11-19T10:58:24;7.20;;;1.05;;
73919;SDS011;62266;53.348;-1.496;2023-11-19T11:01:13;5.17;;;0.80;;
73919;SDS011;62266;53.348;-1.496;2023-11-19T11:04:02;5.50;;;0.90;;
73919;SDS011;62266;53.348;-1.496;2023-11-19T11:06:46;6.78;;;1.17;;
73919;SDS011;62266;53.348;-1.496;2023-11-19T11:09:31;5.65;;;0.77;;
73919;SDS011;62266;53.348;-1.496;2023-11-19T11:12:16;4.90;;;1.40;;
73919;SDS011;62266;53.348;-1.496;2023-11-19T11:15:01;6.07;;;0.90;;
73919;SDS011;62266;53.348;-1.496;2023-11-19T11:17:48;5.05;;;1.10;;
73919;SDS011;62266;53.348;-1.496;2023-11-19T11:20:32;5.78;;;1.50;;
73919;SDS011;62266;53.348;-1.496;2023-11-19T11:29:35;5.50;;;0.90;;
73919;SDS011;62266;53.348;-1.496;2023-11-19T11:32:38;3.30;;;1.77;;
73919;SDS011;62266;53.348;-1.496;2023-11-19T11:38:10;3.17;;;1.02;;
73919;SDS011;62266;53.348;-1.496;2023-11-19T11:43:59;3.83;;;0.63;;
73919;SDS011;62266;53.348;-1.496;2023-11-19T11:46:55;2.60;;;0.90;;
73919;SDS011;62266;53.348;-1.496;2023-11-19T11:49:40;5.43;;;1.20;;
73919;SDS011;62266;53.348;-1.496;2023-11-19T11:52:25;5.13;;;1.58;;
73919;SDS011;62266;53.348;-1.496;2023-11-19T11:55:10;3.95;;;1.00;;
73919;SDS011;62266;53.348;-1.496;2023-11-19T11:57:55;3.80;;;1.43;;
73919;SDS011;62266;53.348;-1.496;2023-11-19T12:00:40;2.53;;;0.90;;
73919;SDS011;62266;53.348;-1.496;2023-11-19T12:03:26;3.85;;;0.93;;
73919;SDS011;62266;53.348;-1.496;2023-11-19T12:06:12;2.70;;;1.20;;
73919;SDS011;62266;53.348;-1.496;2023-11-19T12:08:59;3.97;;;1.38;;
73919;SDS011;62266;53.348;-1.496;2023-11-19T12:11:49;5.70;;;1.40;;
73919;SDS011;62266;53.348;-1.496;2023-11-19T12:15:03;4.10;;;0.98;;
73919;SDS011;62266;53.348;-1.496;2023-11-19T12:17:54;3.35;;;1.33;;
73919;SDS011;62266;53.348;-1.496;2023-11-19T12:20:38;5.32;;;1.67;;
73919;SDS011;62266;53.348;-1.496;2023-11-19T12:23:23;5.50;;;1.90;;
73919;SDS011;62266;53.348;-1.496;2023-11-19T12:26:20;5.13;;;1.73;;
73919;SDS011;62266;53.348;-1.496;2023-11-19T12:29:13;5.13;;;1.60;;
73919;SDS011;62266;53.348;-1.496;2023-11-19T12:34:42;5.40;;;1.52;;
73919;SDS011;62266;53.348;-1.496;2023-11-19T12:37:50;4.72;;;1.27;;
73919;SDS011;62266;53.348;-1.496;2023-11-19T12:40:41;3.97;;;1.73;;
73919;SDS011;62266;53.348;-1.496;2023-11-19T12:43:25;2.47;;;1.45;;
73919;SDS011;62266;53.348;-1.496;2023-11-19T12:46:19;5.82;;;1.50;;
73919;SDS011;62266;53.348;-1.496;2023-11-19T12:49:06;3.28;;;1.17;;
73919;SDS011;62266;53.348;-1.496;2023-11-19T12:51:50;4.18;;;1.45;;
73919;SDS011;62266;53.348;-1.496;2023-11-19T12:54:35;4.60;;;1.17;;
73919;SDS011;62266;53.348;-1.496;2023-11-19T12:57:19;1.63;;;0.90;;
73919;SDS011;62266;53.348;-1.496;2023-11-19T13:00:06;2.50;;;0.80;;
73919;SDS011;62266;53.348;-1.496;2023-11-19T13:02:56;2.33;;;0.80;;
73919;SDS011;62266;53.348;-1.496;2023-11-19T13:05:40;1.80;;;0.90;;
73919;SDS011;62266;53.348;-1.496;2023-11-19T13:08:25;1.53;;;0.80;;
73919;SDS011;62266;53.348;-1.496;2023-11-19T13:11:13;1.25;;;0.65;;
73919;SDS011;62266;53.348;-1.496;2023-11-19T13:14:12;0.82;;;0.50;;
73919;SDS011;62266;53.348;-1.496;2023-11-19T13:16:57;0.90;;;0.50;;
73919;SDS011;62266;53.348;-1.496;2023-11-19T13:19:41;1.38;;;0.45;;
73919;SDS011;62266;53.348;-1.496;2023-11-19T13:22:30;1.10;;;0.50;;
73919;SDS011;62266;53.348;-1.496;2023-11-19T13:27:56;3.17;;;1.23;;
73919;SDS011;62266;53.348;-1.496;2023-11-19T13:30:41;1.63;;;0.95;;
73919;SDS011;62266;53.348;-1.496;2023-11-19T13:33:28;2.70;;;1.63;;
73919;SDS011;62266;53.348;-1.496;2023-11-19T13:36:15;0.83;;;0.67;;
73919;SDS011;62266;53.348;-1.496;2023-11-19T13:38:59;1.60;;;1.10;;
73919;SDS011;62266;53.348;-1.496;2023-11-19T13:41:46;3.17;;;0.98;;
73919;SDS011;62266;53.348;-1.496;2023-11-19T13:44:40;1.52;;;0.90;;
73919;SDS011;62266;53.348;-1.496;2023-11-19T13:47:31;1.63;;;0.70;;
73919;SDS011;62266;53.348;-1.496;2023-11-19T13:50:16;1.60;;;0.67;;
73919;SDS011;62266;53.348;-1.496;2023-11-19T13:55:39;3.65;;;0.90;;
73919;SDS011;62266;53.348;-1.496;2023-11-19T13:58:27;0.70;;;0.47;;
73919;SDS011;62266;53.348;-1.496;2023-11-19T14:01:12;1.00;;;0.60;;
73919;SDS011;62266;53.348;-1.496;2023-11-19T14:04:01;1.17;;;0.50;;
73919;SDS011;62266;53.348;-1.496;2023-11-19T14:06:51;2.60;;;0.70;;
73919;SDS011;62266;53.348;-1.496;2023-11-19T14:09:36;0.80;;;0.50;;
73919;SDS011;62266;53.348;-1.496;2023-11-19T14:12:20;1.20;;;0.60;;
73919;SDS011;62266;53.348;-1.496;2023-11-19T14:15:05;1.02;;;0.47;;
73919;SDS011;62266;53.348;-1.496;2023-11-19T14:17:50;1.03;;;0.50;;
73919;SDS011;62266;53.348;-1.496;2023-11-19T14:20:37;2.63;;;0.85;;
73919;SDS011;62266;53.348;-1.496;2023-11-19T14:23:22;2.40;;;1.23;;
73919;SDS011;62266;53.348;-1.496;2023-11-19T14:26:08;1.65;;;0.60;;
73919;SDS011;62266;53.348;-1.496;2023-11-19T14:28:52;1.80;;;0.95;;
73919;SDS011;62266;53.348;-1.496;2023-11-19T14:31:36;0.90;;;0.50;;
73919;SDS011;62266;53.348;-1.496;2023-11-19T14:34:21;1.13;;;0.30;;
73919;SDS011;62266;53.348;-1.496;2023-11-19T14:37:06;1.13;;;0.52;;
73919;SDS011;62266;53.348;-1.496;2023-11-19T14:39:50;0.98;;;0.40;;
73919;SDS011;62266;53.348;-1.496;2023-11-19T14:42:34;1.23;;;0.70;;
73919;SDS011;62266;53.348;-1.496;2023-11-19T14:45:19;1.03;;;0.73;;
73919;SDS011;62266;53.348;-1.496;2023-11-19T14:48:03;1.90;;;0.80;;
73919;SDS011;62266;53.348;-1.496;2023-11-19T14:50:48;4.30;;;3.80;;
73919;SDS011;62266;53.348;-1.496;2023-11-19T14:53:32;6.15;;;3.38;;
73919;SDS011;62266;53.348;-1.496;2023-11-19T14:56:17;9.07;;;5.28;;
73919;SDS011;62266;53.348;-1.496;2023-11-19T14:59:02;3.63;;;2.20;;
73919;SDS011;62266;53.348;-1.496;2023-11-19T15:01:46;3.10;;;2.20;;
73919;SDS011;62266;53.348;-1.496;2023-11-19T15:04:31;3.35;;;2.75;;
73919;SDS011;62266;53.348;-1.496;2023-11-19T15:07:15;2.25;;;1.38;;
73919;SDS011;62266;53.348;-1.496;2023-11-19T15:10:00;1.00;;;0.60;;
73919;SDS011;62266;53.348;-1.496;2023-11-19T15:12:44;2.07;;;0.90;;
73919;SDS011;62266;53.348;-1.496;2023-11-19T15:18:11;2.38;;;0.50;;
73919;SDS011;62266;53.348;-1.496;2023-11-19T15:29:03;0.75;;;0.20;;
73919;SDS011;62266;53.348;-1.496;2023-11-19T15:31:51;0.68;;;0.30;;
73919;SDS011;62266;53.348;-1.496;2023-11-19T15:34:35;1.35;;;0.30;;
73919;SDS011;62266;53.348;-1.496;2023-11-19T15:37:22;1.00;;;0.30;;
73919;SDS011;62266;53.348;-1.496;2023-11-19T15:40:08;1.53;;;0.40;;
73919;SDS011;62266;53.348;-1.496;2023-11-19T15:42:56;1.65;;;0.50;;
73919;SDS011;62266;53.348;-1.496;2023-11-19T15:45:41;1.50;;;0.55;;
73919;SDS011;62266;53.348;-1.496;2023-11-19T15:48:25;3.22;;;0.80;;
73919;SDS011;62266;53.348;-1.496;2023-11-19T15:51:09;0.70;;;0.30;;
73919;SDS011;62266;53.348;-1.496;2023-11-19T15:53:53;2.40;;;0.60;;
73919;SDS011;62266;53.348;-1.496;2023-11-19T15:56:38;2.03;;;0.95;;
73919;SDS011;62266;53.348;-1.496;2023-11-19T15:59:21;1.83;;;0.45;;
73919;SDS011;62266;53.348;-1.496;2023-11-19T16:02:06;1.15;;;0.50;;
73919;SDS011;62266;53.348;-1.496;2023-11-19T16:04:50;1.33;;;0.55;;
73919;SDS011;62266;53.348;-1.496;2023-11-19T16:07:35;1.53;;;0.73;;
73919;SDS011;62266;53.348;-1.496;2023-11-19T16:10:23;1.55;;;0.40;;
73919;SDS011;62266;53.348;-1.496;2023-11-19T16:13:08;1.05;;;0.50;;
73919;SDS011;62266;53.348;-1.496;2023-11-19T16:15:54;0.88;;;0.70;;
73919;SDS011;62266;53.348;-1.496;2023-11-19T16:18:38;1.35;;;0.80;;
73919;SDS011;62266;53.348;-1.496;2023-11-19T16:21:22;1.20;;;0.60;;
73919;SDS011;62266;53.348;-1.496;2023-11-19T16:24:08;0.70;;;0.40;;
73919;SDS011;62266;53.348;-1.496;2023-11-19T16:26:53;1.33;;;0.77;;
73919;SDS011;62266;53.348;-1.496;2023-11-19T16:29:38;2.30;;;0.82;;
73919;SDS011;62266;53.348;-1.496;2023-11-19T16:32:22;1.95;;;0.73;;
73919;SDS011;62266;53.348;-1.496;2023-11-19T16:35:09;1.10;;;0.70;;
73919;SDS011;62266;53.348;-1.496;2023-11-19T16:37:54;2.33;;;1.48;;
73919;SDS011;62266;53.348;-1.496;2023-11-19T16:40:39;1.13;;;0.80;;
73919;SDS011;62266;53.348;-1.496;2023-11-19T16:43:23;2.85;;;0.80;;
73919;SDS011;62266;53.348;-1.496;2023-11-19T16:46:11;1.67;;;1.17;;
73919;SDS011;62266;53.348;-1.496;2023-11-19T16:48:55;1.30;;;1.07;;
73919;SDS011;62266;53.348;-1.496;2023-11-19T16:51:40;2.35;;;1.23;;
73919;SDS011;62266;53.348;-1.496;2023-11-19T16:54:29;1.52;;;0.80;;
73919;SDS011;62266;53.348;-1.496;2023-11-19T16:57:14;2.25;;;1.20;;